Time;durP1;ratioP1;P1;durP2;ratioP2;P2;SDS_P1;SDS_P2;PMS_P1;PMS_P2;Temp;Humidity;BMP_temperature;BMP_pressure;BME280_temperature;BME280_humidity;BME280_pressure;Samples;Min_cycle;Max_cycle;Signal;HPM_P1;HPM_P2
2022/04/14 00:00:34;;;;;;;6.65;3.28;;;;;;;;;;5054094;28;20029;-79
2022/04/14 00:03:00;;;;;;;4.85;3.13;;;;;;;;;;5054366;28;20041;-79
2022/04/14 00:05:25;;;;;;;5.65;2.95;;;;;;;;;;5053659;28;20031;-78
2022/04/14 00:07:50;;;;;;;4.85;2.67;;;;;;;;;;5054020;28;20037;-79
2022/04/14 00:10:15;;;;;;;4.25;2.90;;;;;;;;;;5054238;28;20098;-79
2022/04/14 00:12:41;;;;;;;5.90;3.08;;;;;;;;;;5053839;28;20039;-79
2022/04/14 00:15:06;;;;;;;5.80;3.20;;;;;;;;;;5052784;28;20036;-79
2022/04/14 00:17:32;;;;;;;5.07;3.03;;;;;;;;;;5054062;28;20497;-79
2022/04/14 00:19:57;;;;;;;3.53;2.80;;;;;;;;;;5054078;28;20031;-79
2022/04/14 00:22:23;;;;;;;6.55;2.85;;;;;;;;;;5054410;28;20024;-79
2022/04/14 00:24:48;;;;;;;4.72;2.90;;;;;;;;;;5054057;28;20021;-79
2022/04/14 00:27:13;;;;;;;8.38;3.10;;;;;;;;;;5053813;28;20099;-80
2022/04/14 00:29:38;;;;;;;4.25;2.78;;;;;;;;;;5053070;28;20037;-79
2022/04/14 00:32:04;;;;;;;5.10;2.90;;;;;;;;;;5054166;28;20029;-79
2022/04/14 00:34:29;;;;;;;5.30;2.70;;;;;;;;;;5053718;28;20436;-79
2022/04/14 00:36:54;;;;;;;5.10;2.90;;;;;;;;;;5053998;28;20041;-79
2022/04/14 00:39:19;;;;;;;3.70;2.85;;;;;;;;;;5052878;28;20107;-79
2022/04/14 00:41:45;;;;;;;4.45;2.70;;;;;;;;;;5052802;28;20059;-79
2022/04/14 00:44:10;;;;;;;4.85;2.55;;;;;;;;;;5052113;28;20025;-79
2022/04/14 00:46:35;;;;;;;4.32;2.53;;;;;;;;;;5035824;28;20029;-79
2022/04/14 00:49:00;;;;;;;3.75;2.63;;;;;;;;;;5055259;28;20451;-80
2022/04/14 00:51:26;;;;;;;5.00;2.53;;;;;;;;;;5058632;28;20382;-79
2022/04/14 00:53:51;;;;;;;4.68;2.70;;;;;;;;;;5057911;28;20039;-79
2022/04/14 00:56:16;;;;;;;7.45;2.90;;;;;;;;;;5057697;28;20683;-79
2022/04/14 00:58:41;;;;;;;5.53;2.72;;;;;;;;;;5056793;28;20037;-80
2022/04/14 01:01:07;;;;;;;3.83;2.90;;;;;;;;;;5057552;28;20051;-79
2022/04/14 01:03:32;;;;;;;5.13;3.08;;;;;;;;;;5056401;28;20029;-79
2022/04/14 01:05:57;;;;;;;5.10;2.80;;;;;;;;;;5056268;28;20075;-79
2022/04/14 01:08:23;;;;;;;5.50;2.72;;;;;;;;;;5057577;28;20037;-79
2022/04/14 01:10:48;;;;;;;3.08;2.65;;;;;;;;;;5057398;28;20044;-79
2022/04/14 01:13:13;;;;;;;3.60;2.80;;;;;;;;;;5057865;28;20487;-79
2022/04/14 01:15:39;;;;;;;4.88;2.90;;;;;;;;;;5056598;28;20078;-79
2022/04/14 01:18:04;;;;;;;6.32;3.22;;;;;;;;;;5057273;28;20090;-79
2022/04/14 01:20:29;;;;;;;4.30;2.90;;;;;;;;;;5057358;28;20029;-79
2022/04/14 01:22:55;;;;;;;6.28;3.25;;;;;;;;;;5057100;28;20123;-79
2022/04/14 01:25:20;;;;;;;4.13;2.85;;;;;;;;;;5056562;28;20040;-79
2022/04/14 01:27:46;;;;;;;4.95;3.08;;;;;;;;;;5055775;28;20033;-79
2022/04/14 01:30:11;;;;;;;4.53;3.05;;;;;;;;;;5056851;28;20090;-78
2022/04/14 01:32:36;;;;;;;4.43;3.03;;;;;;;;;;5057042;28;20032;-79
2022/04/14 01:35:02;;;;;;;5.03;3.10;;;;;;;;;;5056545;28;20099;-79
2022/04/14 01:37:27;;;;;;;3.30;2.80;;;;;;;;;;5057121;28;20074;-79
2022/04/14 01:39:52;;;;;;;4.63;3.17;;;;;;;;;;5056623;28;20524;-80
2022/04/14 01:42:17;;;;;;;4.80;3.00;;;;;;;;;;5055827;28;20033;-79
2022/04/14 01:44:42;;;;;;;4.97;3.17;;;;;;;;;;5056316;28;20052;-79
2022/04/14 01:47:08;;;;;;;4.97;3.10;;;;;;;;;;5056796;28;20406;-79
2022/04/14 01:49:33;;;;;;;4.25;3.13;;;;;;;;;;5056824;28;20123;-79
2022/04/14 01:51:58;;;;;;;6.82;3.60;;;;;;;;;;5056603;28;20078;-79
2022/04/14 01:54:24;;;;;;;3.90;2.92;;;;;;;;;;5056290;28;20390;-79
2022/04/14 01:56:49;;;;;;;5.30;3.33;;;;;;;;;;5056393;28;20112;-79
2022/04/14 01:59:15;;;;;;;4.45;2.97;;;;;;;;;;5056810;28;20055;-78
2022/04/14 02:01:40;;;;;;;3.70;3.20;;;;;;;;;;5056026;28;20408;-79
2022/04/14 02:04:07;;;;;;;4.28;2.92;;;;;;;;;;5055552;28;20033;-79
2022/04/14 02:06:32;;;;;;;5.63;3.13;;;;;;;;;;5056084;28;20059;-79
2022/04/14 02:08:57;;;;;;;5.75;2.67;;;;;;;;;;5056225;28;20118;-79
2022/04/14 02:11:23;;;;;;;5.20;3.30;;;;;;;;;;5054889;28;20075;-80
2022/04/14 02:13:48;;;;;;;4.13;2.90;;;;;;;;;;5054729;28;20032;-79
2022/04/14 02:16:13;;;;;;;5.40;2.92;;;;;;;;;;5055842;28;20064;-78
2022/04/14 02:18:38;;;;;;;5.07;3.20;;;;;;;;;;5055925;28;20037;-79
2022/04/14 02:21:04;;;;;;;4.97;2.90;;;;;;;;;;5056306;28;20032;-78
2022/04/14 02:23:29;;;;;;;3.97;2.75;;;;;;;;;;5056440;28;20029;-79
2022/04/14 02:25:54;;;;;;;4.18;2.97;;;;;;;;;;5055167;28;20041;-79
2022/04/14 02:28:19;;;;;;;4.00;2.50;;;;;;;;;;5054949;28;20104;-79
2022/04/14 02:30:45;;;;;;;4.50;2.70;;;;;;;;;;5055877;28;20056;-79
2022/04/14 02:33:10;;;;;;;4.05;2.60;;;;;;;;;;5086171;22;20039;-83
2022/04/14 02:35:35;;;;;;;4.70;2.40;;;;;;;;;;5058385;28;20056;-85
2022/04/14 02:38:01;;;;;;;4.10;2.80;;;;;;;;;;5056237;28;20052;-84
2022/04/14 02:40:26;;;;;;;4.40;2.42;;;;;;;;;;5062580;28;20048;-84
2022/04/14 02:42:53;;;;;;;3.92;2.50;;;;;;;;;;5055844;28;20099;-85
2022/04/14 02:45:18;;;;;;;3.38;2.80;;;;;;;;;;5057102;28;20037;-84
2022/04/14 02:47:44;;;;;;;3.45;2.75;;;;;;;;;;5057641;28;20175;-85
2022/04/14 02:50:09;;;;;;;4.55;2.90;;;;;;;;;;5057261;28;20029;-83
2022/04/14 02:52:34;;;;;;;4.85;2.70;;;;;;;;;;5057773;28;20489;-86
2022/04/14 02:54:59;;;;;;;3.53;2.60;;;;;;;;;;5039096;28;20036;-85
2022/04/14 02:57:25;;;;;;;4.43;2.83;;;;;;;;;;5056776;28;20040;-84
2022/04/14 02:59:50;;;;;;;3.33;2.63;;;;;;;;;;5058010;28;20516;-84
2022/04/14 03:02:15;;;;;;;5.63;3.10;;;;;;;;;;5057872;28;20043;-83
2022/04/14 03:04:40;;;;;;;7.90;3.90;;;;;;;;;;5055458;28;20481;-85
2022/04/14 03:07:06;;;;;;;5.53;3.47;;;;;;;;;;5038909;28;20053;-85
2022/04/14 03:09:31;;;;;;;3.60;2.92;;;;;;;;;;5055020;28;20043;-86
2022/04/14 03:11:56;;;;;;;5.15;2.78;;;;;;;;;;5038645;28;20086;-83
2022/04/14 03:14:21;;;;;;;3.88;2.55;;;;;;;;;;5056121;28;20041;-85
2022/04/14 03:16:47;;;;;;;4.35;2.70;;;;;;;;;;5056374;28;20029;-84
2022/04/14 03:19:12;;;;;;;4.80;2.45;;;;;;;;;;5055345;28;20068;-84
2022/04/14 03:21:38;;;;;;;4.25;2.40;;;;;;;;;;5055475;28;20036;-85
2022/04/14 03:24:03;;;;;;;3.20;2.50;;;;;;;;;;5054244;28;20033;-85
2022/04/14 03:26:28;;;;;;;6.82;2.63;;;;;;;;;;5053652;28;20044;-83
2022/04/14 03:28:53;;;;;;;4.95;2.55;;;;;;;;;;5054675;28;20429;-83
2022/04/14 03:31:19;;;;;;;3.50;2.30;;;;;;;;;;5054192;28;20029;-85
2022/04/14 03:33:44;;;;;;;3.78;2.38;;;;;;;;;;5055051;28;20072;-84
2022/04/14 03:36:09;;;;;;;4.60;2.33;;;;;;;;;;5058357;28;20025;-82
2022/04/14 03:38:34;;;;;;;7.18;3.00;;;;;;;;;;5056807;28;20469;-86
2022/04/14 03:41:02;;;;;;;4.10;3.10;;;;;;;;;;5056334;28;20501;-83
2022/04/14 03:43:28;;;;;;;5.68;3.10;;;;;;;;;;5062869;28;20072;-85
2022/04/14 03:45:53;;;;;;;7.97;3.05;;;;;;;;;;5056278;28;20033;-84
2022/04/14 03:48:18;;;;;;;4.30;2.88;;;;;;;;;;5056651;28;20283;-85
2022/04/14 03:50:43;;;;;;;4.88;3.08;;;;;;;;;;5057126;28;20045;-84
2022/04/14 03:53:09;;;;;;;5.25;2.88;;;;;;;;;;5056202;28;20115;-85
2022/04/14 03:55:34;;;;;;;7.07;2.90;;;;;;;;;;5055587;28;20032;-84
2022/04/14 03:57:59;;;;;;;3.65;2.75;;;;;;;;;;5038374;28;20110;-87
2022/04/14 04:00:25;;;;;;;4.50;2.88;;;;;;;;;;5054962;28;20481;-85
2022/04/14 04:02:51;;;;;;;5.03;2.80;;;;;;;;;;5056559;28;20041;-86
2022/04/14 04:05:16;;;;;;;5.00;2.85;;;;;;;;;;5055047;28;20029;-84
2022/04/14 04:07:41;;;;;;;4.65;2.70;;;;;;;;;;5055170;28;20485;-85
2022/04/14 04:10:06;;;;;;;4.20;3.00;;;;;;;;;;5054237;28;20033;-85
2022/04/14 04:12:32;;;;;;;4.35;2.60;;;;;;;;;;5055190;28;20082;-85
2022/04/14 04:14:57;;;;;;;4.97;2.40;;;;;;;;;;5055307;28;20033;-84
2022/04/14 04:17:22;;;;;;;4.82;2.58;;;;;;;;;;5053522;28;20033;-84
2022/04/14 04:19:47;;;;;;;7.85;3.10;;;;;;;;;;5055183;28;20044;-85
2022/04/14 04:22:13;;;;;;;10.40;3.53;;;;;;;;;;5053984;28;20078;-84
2022/04/14 04:24:38;;;;;;;5.85;3.00;;;;;;;;;;5039873;28;20033;-84
2022/04/14 04:27:03;;;;;;;6.55;2.60;;;;;;;;;;5060759;28;20044;-84
2022/04/14 04:29:29;;;;;;;5.18;2.38;;;;;;;;;;5060173;28;20045;-84
2022/04/14 04:31:54;;;;;;;5.65;2.75;;;;;;;;;;5058740;28;20029;-84
2022/04/14 04:34:19;;;;;;;4.15;2.70;;;;;;;;;;5066491;28;20032;-84
2022/04/14 04:36:44;;;;;;;5.65;2.80;;;;;;;;;;5063138;28;20041;-84
2022/04/14 04:39:09;;;;;;;3.80;2.50;;;;;;;;;;5061850;28;20059;-85
2022/04/14 04:41:35;;;;;;;3.58;2.40;;;;;;;;;;5062374;28;20025;-85
2022/04/14 04:44:00;;;;;;;5.43;3.00;;;;;;;;;;5058724;28;20504;-85
2022/04/14 04:46:25;;;;;;;8.32;3.10;;;;;;;;;;5057495;28;20060;-84
2022/04/14 04:48:50;;;;;;;3.67;2.60;;;;;;;;;;5057575;28;20069;-83
2022/04/14 04:51:16;;;;;;;6.45;3.72;;;;;;;;;;5071075;28;20042;-86
2022/04/14 04:53:41;;;;;;;25.27;16.88;;;;;;;;;;5061462;28;20031;-84
2022/04/14 04:56:06;;;;;;;9.15;6.05;;;;;;;;;;5060855;28;20408;-85
2022/04/14 04:58:32;;;;;;;5.43;3.28;;;;;;;;;;5060988;28;20091;-84
2022/04/14 05:00:57;;;;;;;4.18;2.90;;;;;;;;;;5061795;28;20504;-82
2022/04/14 05:03:22;;;;;;;5.00;2.70;;;;;;;;;;5061387;28;20028;-84
2022/04/14 05:05:48;;;;;;;12.98;6.53;;;;;;;;;;5059706;28;20064;-85
2022/04/14 05:08:13;;;;;;;8.65;4.80;;;;;;;;;;5060195;28;20025;-84
2022/04/14 05:10:38;;;;;;;8.23;3.95;;;;;;;;;;5061337;28;20041;-85
2022/04/14 05:13:04;;;;;;;11.63;6.07;;;;;;;;;;5061217;28;20037;-85
2022/04/14 05:15:29;;;;;;;9.18;5.03;;;;;;;;;;5061062;28;20029;-83
2022/04/14 05:17:54;;;;;;;6.45;4.13;;;;;;;;;;5059626;28;20028;-84
2022/04/14 05:20:20;;;;;;;23.60;10.88;;;;;;;;;;5042572;28;20044;-83
2022/04/14 05:22:45;;;;;;;21.92;11.25;;;;;;;;;;5058842;28;20033;-87
2022/04/14 05:25:10;;;;;;;12.32;5.32;;;;;;;;;;5059881;28;20039;-84
2022/04/14 05:27:35;;;;;;;7.43;3.13;;;;;;;;;;5060197;28;20040;-84
2022/04/14 05:30:01;;;;;;;6.88;2.40;;;;;;;;;;5059331;28;20040;-84
2022/04/14 05:32:26;;;;;;;5.88;2.22;;;;;;;;;;5067355;28;20029;-86
2022/04/14 05:34:51;;;;;;;5.40;2.40;;;;;;;;;;5060513;28;20086;-85
2022/04/14 05:37:16;;;;;;;3.22;2.03;;;;;;;;;;5057107;28;20044;-84
2022/04/14 05:39:42;;;;;;;3.92;2.10;;;;;;;;;;5059354;28;20432;-85
2022/04/14 05:42:07;;;;;;;6.57;2.63;;;;;;;;;;5057274;28;20029;-86
2022/04/14 05:44:32;;;;;;;4.88;2.63;;;;;;;;;;5056403;28;20444;-84
2022/04/14 05:46:57;;;;;;;4.90;2.50;;;;;;;;;;5057718;28;20090;-84
2022/04/14 05:49:22;;;;;;;5.00;2.10;;;;;;;;;;5040782;28;20033;-83
2022/04/14 05:51:48;;;;;;;2.75;1.65;;;;;;;;;;5057278;28;20032;-84
2022/04/14 05:54:14;;;;;;;10.48;2.08;;;;;;;;;;5054292;28;20464;-85
2022/04/14 05:56:39;;;;;;;5.45;2.00;;;;;;;;;;5036868;28;20036;-83
2022/04/14 05:59:04;;;;;;;2.97;1.63;;;;;;;;;;5066585;28;20482;-84
2022/04/14 06:01:30;;;;;;;4.68;2.03;;;;;;;;;;5057798;28;20032;-83
2022/04/14 06:03:55;;;;;;;4.13;2.05;;;;;;;;;;5059904;28;20048;-84
2022/04/14 06:06:20;;;;;;;3.05;1.80;;;;;;;;;;5057371;28;20075;-84
2022/04/14 06:08:46;;;;;;;2.83;2.10;;;;;;;;;;5056077;28;20029;-85
2022/04/14 06:11:14;;;;;;;2.55;1.92;;;;;;;;;;5055546;28;20061;-83
2022/04/14 06:13:40;;;;;;;7.25;2.10;;;;;;;;;;5056576;28;20036;-82
2022/04/14 06:16:05;;;;;;;5.13;2.00;;;;;;;;;;5055484;28;20029;-84
2022/04/14 06:18:30;;;;;;;4.68;2.75;;;;;;;;;;5054888;28;20041;-83
2022/04/14 06:20:55;;;;;;;3.03;1.83;;;;;;;;;;5038059;28;20043;-84
2022/04/14 06:23:21;;;;;;;6.65;1.85;;;;;;;;;;5037666;28;20049;-84
2022/04/14 06:25:49;;;;;;;5.70;2.00;;;;;;;;;;5054082;28;20035;-83
2022/04/14 06:28:14;;;;;;;3.67;1.65;;;;;;;;;;5053251;28;20033;-83
2022/04/14 06:30:40;;;;;;;4.40;1.55;;;;;;;;;;5062522;28;20036;-84
2022/04/14 06:33:05;;;;;;;4.10;1.90;;;;;;;;;;5054912;28;20036;-85
2022/04/14 06:35:31;;;;;;;4.35;1.75;;;;;;;;;;5055901;28;20404;-84
2022/04/14 06:37:56;;;;;;;8.10;1.90;;;;;;;;;;5054959;28;20485;-85
2022/04/14 06:40:21;;;;;;;3.35;1.60;;;;;;;;;;5057677;28;20082;-87
2022/04/14 06:42:47;;;;;;;4.65;1.80;;;;;;;;;;5061954;28;20508;-86
2022/04/14 06:45:12;;;;;;;3.45;1.85;;;;;;;;;;5059357;28;20049;-86
2022/04/14 06:47:37;;;;;;;3.75;1.63;;;;;;;;;;5061367;28;20044;-85
2022/04/14 06:50:02;;;;;;;3.38;1.75;;;;;;;;;;5061589;28;20439;-87
2022/04/14 06:52:28;;;;;;;2.33;1.63;;;;;;;;;;5042823;28;20029;-88
2022/04/14 06:54:53;;;;;;;4.07;1.77;;;;;;;;;;5058651;28;20029;-86
2022/04/14 06:57:20;;;;;;;5.30;1.88;;;;;;;;;;5059366;28;20045;-87
2022/04/14 06:59:45;;;;;;;7.57;1.60;;;;;;;;;;5042828;28;20128;-86
2022/04/14 07:02:10;;;;;;;6.47;1.42;;;;;;;;;;5056789;28;20126;-86
2022/04/14 07:04:36;;;;;;;2.50;1.60;;;;;;;;;;5053205;28;20473;-85
2022/04/14 07:07:02;;;;;;;3.60;1.58;;;;;;;;;;5065033;28;20092;-86
2022/04/14 07:09:32;;;;;;;5.13;1.52;;;;;;;;;;5055867;28;20044;-85
2022/04/14 07:11:59;;;;;;;3.58;1.80;;;;;;;;;;5055949;28;20029;-85
2022/04/14 07:14:25;;;;;;;2.88;1.65;;;;;;;;;;5055217;28;20071;-86
2022/04/14 07:16:50;;;;;;;3.50;1.60;;;;;;;;;;5054364;28;20025;-85
2022/04/14 07:19:15;;;;;;;4.05;1.50;;;;;;;;;;5055525;28;20052;-86
2022/04/14 07:21:40;;;;;;;2.63;1.67;;;;;;;;;;5056287;28;20036;-85
2022/04/14 07:24:06;;;;;;;3.70;1.70;;;;;;;;;;5052894;28;20033;-84
2022/04/14 07:26:31;;;;;;;2.45;1.40;;;;;;;;;;5054129;28;20060;-85
2022/04/14 07:28:56;;;;;;;2.88;1.60;;;;;;;;;;5062222;28;20381;-85
2022/04/14 07:31:21;;;;;;;2.50;1.60;;;;;;;;;;5057847;28;20041;-85
2022/04/14 07:33:47;;;;;;;3.92;1.70;;;;;;;;;;5060209;28;20029;-85
2022/04/14 07:36:18;;;;;;;3.75;1.80;;;;;;;;;;5042620;28;20062;-87
2022/04/14 07:38:43;;;;;;;4.15;1.75;;;;;;;;;;5060968;28;20068;-86
2022/04/14 07:41:08;;;;;;;3.63;1.80;;;;;;;;;;5057725;28;20039;-87
2022/04/14 07:43:34;;;;;;;3.25;1.50;;;;;;;;;;5058810;28;20478;-86
2022/04/14 07:45:59;;;;;;;3.33;1.60;;;;;;;;;;5058614;28;20108;-86
2022/04/14 07:48:24;;;;;;;3.58;1.60;;;;;;;;;;5058696;28;20388;-86
2022/04/14 07:50:49;;;;;;;3.33;1.47;;;;;;;;;;5059347;28;20024;-87
2022/04/14 07:53:15;;;;;;;3.47;1.60;;;;;;;;;;5057749;28;20390;-87
2022/04/14 07:55:40;;;;;;;4.00;1.50;;;;;;;;;;5040104;28;20047;-86
2022/04/14 07:58:09;;;;;;;3.60;1.55;;;;;;;;;;5054335;28;20036;-86
2022/04/14 08:00:34;;;;;;;7.70;2.55;;;;;;;;;;5051312;28;20493;-85
2022/04/14 08:02:59;;;;;;;5.03;1.40;;;;;;;;;;5051887;28;20056;-86
2022/04/14 08:05:24;;;;;;;3.22;1.60;;;;;;;;;;5051489;28;20627;-86
2022/04/14 08:07:50;;;;;;;4.67;1.80;;;;;;;;;;5052322;28;20025;-86
2022/04/14 08:10:15;;;;;;;4.32;1.48;;;;;;;;;;5052391;28;20412;-86
2022/04/14 08:12:40;;;;;;;4.57;2.10;;;;;;;;;;5052604;28;20504;-85
2022/04/14 08:15:06;;;;;;;4.07;1.95;;;;;;;;;;5061620;28;20288;-86
2022/04/14 08:17:33;;;;;;;3.47;1.83;;;;;;;;;;5052402;28;20075;-86
2022/04/14 08:19:58;;;;;;;6.22;2.10;;;;;;;;;;5054625;28;20041;-86
2022/04/14 08:22:23;;;;;;;5.90;2.00;;;;;;;;;;5052818;28;20116;-87
2022/04/14 08:24:50;;;;;;;2.67;1.90;;;;;;;;;;5054575;28;20151;-86
2022/04/14 08:27:15;;;;;;;3.75;2.00;;;;;;;;;;5060715;28;20159;-87
2022/04/14 08:29:40;;;;;;;7.80;2.20;;;;;;;;;;5058738;28;20037;-86
2022/04/14 08:32:09;;;;;;;8.90;2.50;;;;;;;;;;5056503;28;20115;-86
2022/04/14 08:34:34;;;;;;;7.47;2.70;;;;;;;;;;5069455;22;20041;-82
2022/04/14 08:36:59;;;;;;;5.93;2.92;;;;;;;;;;5056890;28;20048;-83
2022/04/14 08:39:25;;;;;;;6.70;3.53;;;;;;;;;;5052734;28;20171;-81
2022/04/14 08:41:50;;;;;;;6.88;3.60;;;;;;;;;;5054275;28;20396;-81
2022/04/14 08:44:15;;;;;;;5.87;2.57;;;;;;;;;;5053336;28;20410;-81
2022/04/14 08:46:41;;;;;;;5.18;2.42;;;;;;;;;;5054208;28;20280;-82
2022/04/14 08:49:07;;;;;;;7.00;2.78;;;;;;;;;;5053409;28;20044;-82
2022/04/14 08:51:35;;;;;;;7.40;2.38;;;;;;;;;;5053974;28;20106;-83
2022/04/14 08:54:00;;;;;;;10.30;3.50;;;;;;;;;;5053481;28;20068;-82
2022/04/14 08:56:26;;;;;;;9.68;4.38;;;;;;;;;;5053697;28;20036;-82
2022/04/14 08:58:51;;;;;;;7.18;4.07;;;;;;;;;;5054005;28;20083;-82
2022/04/14 09:01:16;;;;;;;9.45;4.55;;;;;;;;;;5054235;28;20036;-82
2022/04/14 09:03:42;;;;;;;7.78;4.30;;;;;;;;;;5053158;28;20029;-82
2022/04/14 09:06:07;;;;;;;10.73;5.25;;;;;;;;;;5053665;28;20040;-82
2022/04/14 09:08:33;;;;;;;10.60;4.93;;;;;;;;;;5054174;28;20036;-82
2022/04/14 09:10:59;;;;;;;13.20;4.63;;;;;;;;;;5054934;28;20508;-82
2022/04/14 09:13:24;;;;;;;12.23;5.18;;;;;;;;;;5056787;28;20025;-82
2022/04/14 09:15:49;;;;;;;13.23;4.85;;;;;;;;;;5057113;28;20389;-82
2022/04/14 09:18:14;;;;;;;14.95;6.60;;;;;;;;;;5058276;28;20044;-82
2022/04/14 09:20:41;;;;;;;12.65;6.22;;;;;;;;;;5056922;28;20082;-82
2022/04/14 09:23:09;;;;;;;8.15;5.00;;;;;;;;;;5057012;28;20493;-82
2022/04/14 09:25:35;;;;;;;15.38;5.88;;;;;;;;;;5057128;28;20105;-82
2022/04/14 09:28:00;;;;;;;12.40;6.00;;;;;;;;;;5057683;28;20393;-82
2022/04/14 09:30:26;;;;;;;13.80;6.00;;;;;;;;;;5057231;28;20037;-82
2022/04/14 09:32:51;;;;;;;12.68;5.90;;;;;;;;;;5056884;28;20024;-82
2022/04/14 09:35:16;;;;;;;11.10;5.50;;;;;;;;;;5057100;28;20467;-82
2022/04/14 09:37:41;;;;;;;14.35;4.88;;;;;;;;;;5057773;28;20032;-82
2022/04/14 09:40:10;;;;;;;9.88;4.70;;;;;;;;;;5039837;28;20512;-82
2022/04/14 09:42:35;;;;;;;13.63;5.05;;;;;;;;;;5057558;28;20052;-82
2022/04/14 09:45:00;;;;;;;9.52;4.68;;;;;;;;;;5056733;28;20029;-82
2022/04/14 09:47:25;;;;;;;9.75;4.40;;;;;;;;;;5057119;28;20029;-83
2022/04/14 09:49:51;;;;;;;10.98;4.82;;;;;;;;;;5057229;28;20417;-82
2022/04/14 09:52:16;;;;;;;11.05;4.80;;;;;;;;;;5055815;28;20021;-83
2022/04/14 09:54:41;;;;;;;7.63;3.85;;;;;;;;;;5056289;28;20044;-82
2022/04/14 09:57:06;;;;;;;13.27;4.55;;;;;;;;;;5056331;28;20407;-82
2022/04/14 09:59:32;;;;;;;9.43;4.37;;;;;;;;;;5055929;28;20035;-82
2022/04/14 10:01:58;;;;;;;8.73;4.32;;;;;;;;;;5057434;28;20627;-83
2022/04/14 10:04:23;;;;;;;10.93;4.67;;;;;;;;;;5056413;28;20025;-82
2022/04/14 10:06:48;;;;;;;9.27;5.10;;;;;;;;;;5056616;28;21067;-82
2022/04/14 10:09:13;;;;;;;7.28;4.10;;;;;;;;;;5057033;28;20068;-83
2022/04/14 10:11:40;;;;;;;9.50;4.70;;;;;;;;;;5057268;28;20036;-82
2022/04/14 10:14:05;;;;;;;9.23;4.63;;;;;;;;;;5056140;28;20283;-82
2022/04/14 10:16:30;;;;;;;11.50;4.07;;;;;;;;;;5056723;28;20036;-82
2022/04/14 10:18:56;;;;;;;8.48;4.22;;;;;;;;;;5055054;28;20032;-83
2022/04/14 10:21:21;;;;;;;9.30;4.60;;;;;;;;;;5056038;28;20443;-82
2022/04/14 10:23:46;;;;;;;9.17;3.87;;;;;;;;;;5056002;28;20448;-82
2022/04/14 10:26:11;;;;;;;8.97;4.60;;;;;;;;;;5055672;28;20275;-82
2022/04/14 10:28:36;;;;;;;12.20;4.50;;;;;;;;;;5054727;28;20395;-83
2022/04/14 10:31:02;;;;;;;11.57;4.38;;;;;;;;;;5056541;28;20037;-83
2022/04/14 10:33:27;;;;;;;12.15;4.28;;;;;;;;;;5055816;28;20443;-82
2022/04/14 10:35:52;;;;;;;9.10;4.35;;;;;;;;;;5055552;28;20071;-82
2022/04/14 10:38:18;;;;;;;9.70;4.55;;;;;;;;;;5055126;28;20040;-82
2022/04/14 10:40:43;;;;;;;8.85;4.35;;;;;;;;;;5054651;28;20599;-82
2022/04/14 10:43:08;;;;;;;7.67;4.50;;;;;;;;;;5056139;28;20037;-83
2022/04/14 10:45:33;;;;;;;7.70;4.53;;;;;;;;;;5054685;28;20299;-83
2022/04/14 10:47:59;;;;;;;12.40;4.75;;;;;;;;;;5056243;28;20659;-82
2022/04/14 10:50:24;;;;;;;7.38;4.20;;;;;;;;;;5054887;28;20036;-83
2022/04/14 10:52:49;;;;;;;8.30;4.40;;;;;;;;;;5056614;28;20440;-82
2022/04/14 10:55:14;;;;;;;8.40;4.50;;;;;;;;;;5056042;28;20044;-82
2022/04/14 10:57:40;;;;;;;8.20;4.80;;;;;;;;;;5038606;28;20291;-82
2022/04/14 11:00:05;;;;;;;7.57;4.10;;;;;;;;;;5057132;28;20408;-82
2022/04/14 11:02:30;;;;;;;11.18;4.47;;;;;;;;;;5055114;28;20115;-82
2022/04/14 11:04:56;;;;;;;11.90;3.83;;;;;;;;;;5056028;28;20021;-82
2022/04/14 11:07:21;;;;;;;14.30;4.90;;;;;;;;;;5055856;28;20032;-81
2022/04/14 11:09:49;;;;;;;7.90;4.57;;;;;;;;;;5056817;28;20040;-82
2022/04/14 11:12:16;;;;;;;8.23;3.70;;;;;;;;;;5057051;28;20033;-82
2022/04/14 11:14:42;;;;;;;7.55;4.60;;;;;;;;;;5054741;28;20068;-82
2022/04/14 11:17:07;;;;;;;7.32;3.85;;;;;;;;;;5054873;28;20041;-82
2022/04/14 11:19:32;;;;;;;6.50;4.25;;;;;;;;;;5056126;28;20025;-81
2022/04/14 11:21:57;;;;;;;6.97;4.20;;;;;;;;;;5056694;28;20497;-81
2022/04/14 11:24:23;;;;;;;7.05;3.90;;;;;;;;;;5055774;28;20299;-82
2022/04/14 11:26:48;;;;;;;6.90;3.80;;;;;;;;;;5056706;28;20017;-83
2022/04/14 11:29:13;;;;;;;11.20;4.10;;;;;;;;;;5055688;28;20275;-82
2022/04/14 11:31:38;;;;;;;9.97;4.20;;;;;;;;;;5056083;28;20287;-82
2022/04/14 11:34:04;;;;;;;6.95;3.60;;;;;;;;;;5053972;28;20319;-82
2022/04/14 11:36:29;;;;;;;7.93;3.70;;;;;;;;;;5054386;28;20037;-82
2022/04/14 11:38:55;;;;;;;6.57;3.22;;;;;;;;;;5053744;28;20280;-82
2022/04/14 11:41:20;;;;;;;6.93;2.95;;;;;;;;;;5054228;28;20508;-82
2022/04/14 11:43:49;;;;;;;9.27;3.10;;;;;;;;;;5055983;28;20053;-82
2022/04/14 11:46:14;;;;;;;6.50;3.10;;;;;;;;;;5055073;28;20279;-83
2022/04/14 11:48:39;;;;;;;9.25;3.00;;;;;;;;;;5054287;28;20044;-82
2022/04/14 11:51:04;;;;;;;6.32;2.83;;;;;;;;;;5055723;28;20064;-82
2022/04/14 11:53:30;;;;;;;6.07;3.00;;;;;;;;;;5055668;28;20033;-82
2022/04/14 11:55:55;;;;;;;7.00;3.08;;;;;;;;;;5053120;28;20505;-82
2022/04/14 11:58:21;;;;;;;8.02;3.20;;;;;;;;;;5055671;28;20040;-83
2022/04/14 12:00:46;;;;;;;8.40;3.78;;;;;;;;;;5055414;28;20036;-82
2022/04/14 12:03:12;;;;;;;7.68;3.20;;;;;;;;;;5053952;28;20056;-83
2022/04/14 12:05:38;;;;;;;6.55;3.10;;;;;;;;;;5053645;28;20029;-82
2022/04/14 12:08:03;;;;;;;4.57;2.67;;;;;;;;;;5055635;28;20404;-82
2022/04/14 12:10:28;;;;;;;4.85;2.60;;;;;;;;;;5055219;28;20279;-83
2022/04/14 12:12:53;;;;;;;4.73;3.00;;;;;;;;;;5054769;28;20044;-83
2022/04/14 12:15:19;;;;;;;4.68;2.90;;;;;;;;;;5054063;28;20286;-83
2022/04/14 12:17:44;;;;;;;5.00;2.70;;;;;;;;;;5054753;28;20040;-83
2022/04/14 12:20:09;;;;;;;7.00;2.60;;;;;;;;;;5053489;28;20040;-83
2022/04/14 12:22:34;;;;;;;7.30;3.40;;;;;;;;;;5037130;28;20382;-83
2022/04/14 12:25:00;;;;;;;8.27;3.10;;;;;;;;;;5054330;28;20072;-83
2022/04/14 12:27:27;;;;;;;6.88;3.50;;;;;;;;;;5055149;28;20295;-82
2022/04/14 12:29:52;;;;;;;8.10;4.10;;;;;;;;;;5054573;28;20036;-83
2022/04/14 12:32:18;;;;;;;6.38;3.72;;;;;;;;;;5053702;28;20021;-83
2022/04/14 12:34:44;;;;;;;6.90;3.78;;;;;;;;;;5054152;28;20485;-83
2022/04/14 12:37:12;;;;;;;11.30;4.28;;;;;;;;;;5053096;28;20090;-82
2022/04/14 12:39:38;;;;;;;7.03;3.50;;;;;;;;;;5054772;28;20075;-83
2022/04/14 12:42:03;;;;;;;5.90;3.50;;;;;;;;;;5054777;28;20037;-83
2022/04/14 12:44:28;;;;;;;6.53;3.33;;;;;;;;;;5053918;28;20378;-82
2022/04/14 12:46:54;;;;;;;8.27;3.90;;;;;;;;;;5058020;28;20040;-83
2022/04/14 12:49:20;;;;;;;6.63;3.22;;;;;;;;;;5057348;28;20275;-83
2022/04/14 12:51:46;;;;;;;5.22;3.33;;;;;;;;;;5058833;28;20048;-83
2022/04/14 12:54:11;;;;;;;7.13;3.65;;;;;;;;;;5057653;28;20041;-83
2022/04/14 12:56:36;;;;;;;7.88;4.30;;;;;;;;;;5058387;28;20024;-82
2022/04/14 12:59:02;;;;;;;5.70;4.22;;;;;;;;;;5040483;28;20421;-83
2022/04/14 13:01:27;;;;;;;8.98;4.10;;;;;;;;;;5058754;28;20485;-82
2022/04/14 13:03:52;;;;;;;10.05;3.75;;;;;;;;;;5058479;28;20032;-83
2022/04/14 13:06:17;;;;;;;8.50;4.70;;;;;;;;;;5057891;28;20040;-83
2022/04/14 13:08:43;;;;;;;9.38;4.53;;;;;;;;;;5058221;28;20037;-83
2022/04/14 13:11:08;;;;;;;7.95;4.40;;;;;;;;;;5057241;28;20056;-83
2022/04/14 13:13:33;;;;;;;8.23;4.50;;;;;;;;;;5059422;28;20051;-83
2022/04/14 13:15:59;;;;;;;6.60;4.70;;;;;;;;;;5057719;28;20033;-83
2022/04/14 13:18:24;;;;;;;6.63;4.50;;;;;;;;;;5057785;28;20036;-83
2022/04/14 13:20:49;;;;;;;10.50;4.53;;;;;;;;;;5058466;28;20040;-83
2022/04/14 13:23:18;;;;;;;7.37;4.30;;;;;;;;;;5058097;28;20041;-82
2022/04/14 13:25:44;;;;;;;9.77;4.40;;;;;;;;;;5055819;28;20783;-83
2022/04/14 13:28:12;;;;;;;8.00;4.70;;;;;;;;;;5058461;28;20032;-83
2022/04/14 13:30:37;;;;;;;10.10;4.88;;;;;;;;;;5057689;28;20287;-83
2022/04/14 13:33:03;;;;;;;11.25;4.80;;;;;;;;;;5058441;28;20051;-83
2022/04/14 13:35:28;;;;;;;11.07;4.88;;;;;;;;;;5055812;28;20076;-82
2022/04/14 13:37:54;;;;;;;8.55;4.70;;;;;;;;;;5058285;28;20059;-83
2022/04/14 13:40:19;;;;;;;8.73;4.47;;;;;;;;;;5057650;28;20210;-83
2022/04/14 13:42:44;;;;;;;9.40;4.53;;;;;;;;;;5058618;28;20279;-82
2022/04/14 13:45:09;;;;;;;10.13;4.70;;;;;;;;;;5056916;28;20318;-82
2022/04/14 13:47:35;;;;;;;6.93;4.20;;;;;;;;;;5057684;28;20037;-82
2022/04/14 13:50:00;;;;;;;7.15;4.15;;;;;;;;;;5039809;28;20060;-83
2022/04/14 13:52:25;;;;;;;11.77;4.45;;;;;;;;;;5039369;28;20037;-83
2022/04/14 13:54:50;;;;;;;8.43;4.35;;;;;;;;;;5056672;28;20047;-82
2022/04/14 13:57:16;;;;;;;10.82;4.88;;;;;;;;;;5055447;28;20041;-83
2022/04/14 13:59:41;;;;;;;7.95;4.38;;;;;;;;;;5056751;28;20028;-83
2022/04/14 14:02:07;;;;;;;9.65;4.78;;;;;;;;;;5056824;28;20469;-83
2022/04/14 14:04:32;;;;;;;10.35;5.00;;;;;;;;;;5054537;28;20041;-83
2022/04/14 14:06:58;;;;;;;6.75;4.35;;;;;;;;;;5056575;28;20037;-83
2022/04/14 14:09:23;;;;;;;9.23;3.97;;;;;;;;;;5057354;28;20029;-83
2022/04/14 14:11:48;;;;;;;8.05;4.38;;;;;;;;;;5057142;28;20763;-83
2022/04/14 14:14:13;;;;;;;10.90;4.55;;;;;;;;;;5054797;28;20456;-83
2022/04/14 14:16:39;;;;;;;9.07;4.30;;;;;;;;;;5056387;28;20158;-83
2022/04/14 14:19:04;;;;;;;6.65;3.90;;;;;;;;;;5056430;28;20055;-83
2022/04/14 14:21:29;;;;;;;8.07;4.65;;;;;;;;;;5056521;28;20044;-83
2022/04/14 14:23:55;;;;;;;7.68;3.92;;;;;;;;;;5054188;28;20028;-82
2022/04/14 14:26:20;;;;;;;10.60;4.30;;;;;;;;;;5056051;28;20033;-83
2022/04/14 14:28:46;;;;;;;10.02;4.22;;;;;;;;;;5055968;28;20052;-83